Nyk Olympus — 3EOS7 — position and weather

sailwx.info

Track history (hours):
 
Tides and Currents Weather Stations Pressure Air Temp Water Temp Dewpoint Dewpoint Depression Visibility Wind Speed Wind Dir Waves Ship Positions

Nyk Olympus

Last reported at 2016-Jun-27 13:09 UTC. Time now 2016-Jun-29 16:34 UTC.
Position N 21°55' E 114°27'.

Length 335 m; draft 9.8 m.

Type: Other ship. MMSI: 372478000.

Date/timePositionNaut miles runAvg speedWind from/ knotsBaromVisibWave heightAir tempDewpointWater temp
2016-Jun-27 13:09N 21°55' E 114°27'1619.2
2016-Jun-27 12:19N 22°10' E 114°27'3 0.1
2016-Jun-25 19:33N 22°13' E 114°27'20 9.2
2016-Jun-25 17:25N 22°17' E 114°06'1010.3
2016-Jun-25 16:29N 22°21' E 113°57'7 7.5
2016-Jun-25 15:32N 22°27' E 113°53'0 0.2
2016-Jun-25 14:33N 22°27' E 113°53'0 0.0
2016-Jun-25 13:33N 22°27' E 113°53'0 0.0
2016-Jun-25 12:33N 22°27' E 113°53'0 0.0
2016-Jun-25 11:27N 22°27' E 113°53'0 0.0
2016-Jun-25 10:33N 22°27' E 113°53'0 0.0
2016-Jun-25 09:33N 22°27' E 113°53'0 0.0
2016-Jun-25 08:33N 22°27' E 113°53'0 0.0
2016-Jun-25 07:33N 22°27' E 113°53'0 0.0
2016-Jun-25 06:33N 22°27' E 113°53'0 0.0
2016-Jun-25 05:33N 22°27' E 113°53'0 0.0
2016-Jun-25 04:33N 22°27' E 113°53'0 0.0
2016-Jun-25 03:33N 22°27' E 113°53'0 0.0
2016-Jun-25 02:27N 22°27' E 113°53'0 0.0
2016-Jun-25 01:33N 22°27' E 113°53'0 0.0
2016-Jun-25 00:33N 22°27' E 113°53'0 0.0
2016-Jun-24 23:33N 22°27' E 113°53'5 4.6
2016-Jun-24 22:33N 22°22' E 113°54'1010.3
2016-Jun-24 21:33N 22°20' E 114°05'2 1.1
2016-Jun-24 19:31N 22°21' E 114°07'0 0.0
2016-Jun-24 08:25N 22°21' E 114°07'0 0.1
2016-Jun-24 06:33N 22°21' E 114°07'13 6.4
2016-Jun-24 04:28N 22°09' E 114°14'1314.2
2016-Jun-24 03:33N 22°08' E 114°28'29714.8
2016-Jun-23 07:31N 22°31' E 119°48'2814.5
2016-Jun-23 05:33N 22°33' E 120°19'1 1.1
2016-Jun-23 04:30N 22°33' E 120°20'0 0.0
2016-Jun-23 03:30N 22°33' E 120°20'0 0.0
2016-Jun-23 02:30N 22°33' E 120°20'0 0.0
2016-Jun-23 01:30N 22°33' E 120°20'0 0.0
2016-Jun-23 00:30N 22°33' E 120°20'0 0.0
2016-Jun-22 23:24N 22°33' E 120°20'0 0.0
2016-Jun-22 22:30N 22°33' E 120°20'0 0.0
2016-Jun-22 21:30N 22°33' E 120°20'0 0.0
2016-Jun-22 20:30N 22°33' E 120°20'0 0.1
2016-Jun-22 19:33N 22°33' E 120°20'5 5.1
2016-Jun-22 18:33N 22°32' E 120°14'5 4.7
2016-Jun-22 17:33N 22°31' E 120°09'7 7.0
2016-Jun-22 16:33N 22°28' E 120°02'1716.5
2016-Jun-22 15:32N 22°23' E 119°45'2016.5
2016-Jun-22 14:21N 22°13' E 119°27'1616.9
2016-Jun-22 13:23N 22°00' E 119°16'  
Track history (hours):
 
Tides and Currents Weather Stations Pressure Air Temp Water Temp Dewpoint Dewpoint Depression Visibility Wind Speed Wind Dir Waves Ship Positions

Nyk Olympus

Last reported at 2016-Jun-27 13:09 UTC. Time now 2016-Jun-29 16:34 UTC.
Position N 21°55' E 114°27'.

Length 335 m; draft 9.8 m.

Type: Other ship. MMSI: 372478000.

Date/timePositionNaut miles runAvg speedWind from/ knotsBaromVisibWave heightAir tempDewpointWater temp
2016-Jun-27 13:09N 21°55' E 114°27'1619.2
2016-Jun-27 12:19N 22°10' E 114°27'3 0.1
2016-Jun-25 19:33N 22°13' E 114°27'20 9.2
2016-Jun-25 17:25N 22°17' E 114°06'1010.3
2016-Jun-25 16:29N 22°21' E 113°57'7 7.5
2016-Jun-25 15:32N 22°27' E 113°53'0 0.2
2016-Jun-25 14:33N 22°27' E 113°53'0 0.0
2016-Jun-25 13:33N 22°27' E 113°53'0 0.0
2016-Jun-25 12:33N 22°27' E 113°53'0 0.0
2016-Jun-25 11:27N 22°27' E 113°53'0 0.0
2016-Jun-25 10:33N 22°27' E 113°53'0 0.0
2016-Jun-25 09:33N 22°27' E 113°53'0 0.0
2016-Jun-25 08:33N 22°27' E 113°53'0 0.0
2016-Jun-25 07:33N 22°27' E 113°53'0 0.0
2016-Jun-25 06:33N 22°27' E 113°53'0 0.0
2016-Jun-25 05:33N 22°27' E 113°53'0 0.0
2016-Jun-25 04:33N 22°27' E 113°53'0 0.0
2016-Jun-25 03:33N 22°27' E 113°53'0 0.0
2016-Jun-25 02:27N 22°27' E 113°53'0 0.0
2016-Jun-25 01:33N 22°27' E 113°53'0 0.0
2016-Jun-25 00:33N 22°27' E 113°53'0 0.0
2016-Jun-24 23:33N 22°27' E 113°53'5 4.6
2016-Jun-24 22:33N 22°22' E 113°54'1010.3
2016-Jun-24 21:33N 22°20' E 114°05'2 1.1
2016-Jun-24 19:31N 22°21' E 114°07'0 0.0
2016-Jun-24 08:25N 22°21' E 114°07'0 0.1
2016-Jun-24 06:33N 22°21' E 114°07'13 6.4
2016-Jun-24 04:28N 22°09' E 114°14'1314.2
2016-Jun-24 03:33N 22°08' E 114°28'29714.8
2016-Jun-23 07:31N 22°31' E 119°48'2814.5
2016-Jun-23 05:33N 22°33' E 120°19'1 1.1
2016-Jun-23 04:30N 22°33' E 120°20'0 0.0
2016-Jun-23 03:30N 22°33' E 120°20'0 0.0
2016-Jun-23 02:30N 22°33' E 120°20'0 0.0
2016-Jun-23 01:30N 22°33' E 120°20'0 0.0
2016-Jun-23 00:30N 22°33' E 120°20'0 0.0
2016-Jun-22 23:24N 22°33' E 120°20'0 0.0
2016-Jun-22 22:30N 22°33' E 120°20'0 0.0
2016-Jun-22 21:30N 22°33' E 120°20'0 0.0
2016-Jun-22 20:30N 22°33' E 120°20'0 0.1
2016-Jun-22 19:33N 22°33' E 120°20'5 5.1
2016-Jun-22 18:33N 22°32' E 120°14'5 4.7
2016-Jun-22 17:33N 22°31' E 120°09'7 7.0
2016-Jun-22 16:33N 22°28' E 120°02'1716.5
2016-Jun-22 15:32N 22°23' E 119°45'2016.5
2016-Jun-22 14:21N 22°13' E 119°27'1616.9
2016-Jun-22 13:23N 22°00' E 119°16'  

Dump ship's entire track history